createdAt,value
2019-05-05T00:00:57.076Z,2.40
2019-05-05T00:03:51.332Z,2.30
2019-05-05T00:06:24.979Z,2.20
2019-05-05T00:08:56.379Z,2.30
2019-05-05T00:11:40.440Z,2.20
2019-05-05T00:14:24.678Z,2.20
2019-05-05T00:17:01.269Z,2.10
2019-05-05T00:19:33.358Z,2.10
2019-05-05T00:22:12.609Z,2.00
2019-05-05T00:24:45.749Z,2.00
2019-05-05T00:27:15.538Z,2.00
2019-05-05T00:29:45.880Z,2.00
2019-05-05T00:32:15.676Z,2.00
2019-05-05T00:34:45.121Z,1.90
2019-05-05T00:37:17.834Z,1.90
2019-05-05T00:39:49.051Z,1.90
2019-05-05T00:42:18.403Z,1.80
2019-05-05T00:44:48.245Z,1.90
2019-05-05T00:47:48.588Z,1.90
2019-05-05T00:50:21.629Z,1.80
2019-05-05T00:52:56.448Z,1.80
2019-05-05T00:55:26.234Z,1.80
2019-05-05T00:57:56.622Z,1.80
2019-05-05T01:00:41.580Z,1.80
2019-05-05T01:03:15.304Z,1.80
2019-05-05T01:05:55.820Z,1.70
2019-05-05T01:08:28.985Z,1.70
2019-05-05T01:11:04.248Z,1.70
2019-05-05T01:13:37.429Z,1.70
2019-05-05T01:16:08.597Z,1.80
2019-05-05T01:18:39.668Z,1.70
2019-05-05T01:21:11.954Z,1.80
2019-05-05T01:23:45.872Z,1.70
2019-05-05T01:26:20.086Z,1.70
2019-05-05T01:28:51.560Z,1.70
2019-05-05T01:31:25.252Z,1.60
2019-05-05T01:34:17.613Z,1.60
2019-05-05T01:36:51.701Z,1.50
2019-05-05T01:39:34.631Z,1.50
2019-05-05T01:42:11.697Z,1.50
2019-05-05T01:44:44.804Z,1.50
2019-05-05T01:47:14.892Z,1.50
2019-05-05T01:49:45.620Z,1.50
2019-05-05T01:52:18.804Z,1.50
2019-05-05T01:54:54.830Z,1.50
2019-05-05T01:57:28.118Z,1.50
2019-05-05T02:00:04.114Z,1.50
2019-05-05T02:02:35.133Z,1.50
2019-05-05T02:05:06.826Z,1.40
2019-05-05T02:07:41.305Z,1.50
2019-05-05T02:10:15.066Z,1.40
2019-05-05T02:12:46.833Z,1.40
2019-05-05T02:15:18.072Z,1.40
2019-05-05T02:17:49.652Z,1.40
2019-05-05T02:20:38.487Z,1.40
2019-05-05T02:23:10.166Z,1.30
2019-05-05T02:25:44.757Z,1.30
2019-05-05T02:28:14.925Z,1.30
2019-05-05T02:31:06.657Z,1.30
2019-05-05T02:33:37.406Z,1.30
2019-05-05T02:36:15.758Z,1.40
2019-05-05T02:38:46.677Z,1.40
2019-05-05T02:41:18.137Z,1.30
2019-05-05T02:43:51.445Z,1.30
2019-05-05T02:47:00.216Z,1.40
2019-05-05T02:49:34.959Z,1.40
2019-05-05T02:52:05.215Z,1.40
2019-05-05T02:54:37.015Z,1.40
2019-05-05T02:57:10.151Z,1.30
2019-05-05T02:59:54.544Z,1.30
2019-05-05T03:02:43.484Z,1.40
2019-05-05T03:05:21.168Z,1.40
2019-05-05T03:07:58.461Z,1.50
2019-05-05T03:10:29.892Z,1.50
2019-05-05T03:13:04.900Z,1.50
2019-05-05T03:15:44.207Z,1.50
2019-05-05T03:18:15.093Z,1.50
2019-05-05T03:21:01.253Z,1.60
2019-05-05T03:23:19.962Z,1.60
2019-05-05T03:25:55.421Z,1.50
2019-05-05T03:28:31.152Z,1.60
2019-05-05T03:31:04.768Z,1.60
2019-05-05T03:33:35.214Z,1.60
2019-05-05T03:36:04.881Z,1.70
2019-05-05T03:38:36.205Z,1.70
2019-05-05T03:41:13.613Z,1.80
2019-05-05T03:44:04.729Z,1.80
2019-05-05T03:46:39.597Z,2.10
2019-05-05T03:49:14.196Z,1.80
2019-05-05T03:51:46.325Z,1.80
2019-05-05T03:54:18.965Z,2.00
2019-05-05T03:56:51.277Z,2.20
2019-05-05T03:59:24.344Z,2.20
2019-05-05T04:02:04.068Z,2.10
2019-05-05T04:04:38.028Z,2.10
2019-05-05T04:07:10.351Z,2.10
2019-05-05T04:09:43.771Z,2.20
2019-05-05T04:12:14.025Z,2.40
2019-05-05T04:14:47.613Z,2.70
2019-05-05T04:17:36.635Z,2.90
2019-05-05T04:20:28.585Z,3.30
2019-05-05T04:23:00.793Z,3.40
2019-05-05T04:25:35.198Z,3.60
2019-05-05T04:28:07.541Z,3.60
2019-05-05T04:30:40.267Z,3.80
2019-05-05T04:33:11.541Z,3.80
2019-05-05T04:35:46.869Z,4.00
2019-05-05T04:38:19.061Z,3.60
2019-05-05T04:40:50.473Z,3.70
2019-05-05T04:43:25.642Z,3.90
2019-05-05T04:46:00.885Z,4.20
2019-05-05T04:48:51.769Z,4.80
2019-05-05T04:51:27.278Z,5.10
2019-05-05T04:54:14.749Z,5.10
2019-05-05T04:56:51.058Z,4.90
2019-05-05T04:59:23.498Z,4.50
2019-05-05T05:02:00.596Z,4.50
2019-05-05T05:04:40.706Z,4.50
2019-05-05T05:07:14.891Z,4.90
2019-05-05T05:09:46.895Z,4.90
2019-05-05T05:12:23.864Z,4.80
2019-05-05T05:14:55.601Z,4.80
2019-05-05T05:17:39.821Z,4.70
2019-05-05T05:20:14.153Z,4.50
2019-05-05T05:22:44.625Z,4.40
2019-05-05T05:25:14.546Z,4.50
2019-05-05T05:27:44.946Z,4.70
2019-05-05T05:30:17.118Z,4.80
2019-05-05T05:32:47.156Z,5.00
2019-05-05T05:35:19.327Z,5.10
2019-05-05T05:37:51.529Z,5.40
2019-05-05T05:40:30.849Z,5.40
2019-05-05T05:43:07.737Z,5.50
2019-05-05T05:46:04.388Z,5.50
2019-05-05T05:48:45.432Z,5.60
2019-05-05T05:51:21.165Z,5.60
2019-05-05T05:53:54.415Z,5.40
2019-05-05T05:56:26.774Z,5.50
2019-05-05T05:58:58.062Z,5.70
2019-05-05T06:01:29.630Z,5.70
2019-05-05T06:04:04.163Z,5.70
2019-05-05T06:06:37.837Z,6.00
2019-05-05T06:09:10.067Z,5.80
2019-05-05T06:11:40.749Z,6.40
2019-05-05T06:14:16.085Z,6.40
2019-05-05T06:16:49.365Z,6.40
2019-05-05T06:19:21.077Z,6.30
2019-05-05T06:21:54.283Z,6.40
2019-05-05T06:24:26.625Z,6.40
2019-05-05T06:27:00.777Z,6.70
2019-05-05T06:29:34.561Z,6.50
2019-05-05T06:32:11.790Z,6.90
2019-05-05T06:34:44.433Z,6.70
2019-05-05T06:37:17.019Z,6.80
2019-05-05T06:39:54.918Z,7.00
2019-05-05T06:42:48.853Z,7.10
2019-05-05T06:45:36.584Z,6.90
2019-05-05T06:48:07.841Z,6.70
2019-05-05T06:50:43.694Z,6.70
2019-05-05T06:53:18.572Z,6.70
2019-05-05T06:55:51.761Z,7.00
2019-05-05T06:58:26.020Z,7.30
2019-05-05T07:00:59.273Z,6.70
2019-05-05T07:03:30.933Z,6.60
2019-05-05T07:06:05.755Z,7.00
2019-05-05T07:08:37.361Z,7.20
2019-05-05T07:11:14.324Z,7.10
2019-05-05T07:13:46.318Z,7.30
2019-05-05T07:16:18.533Z,7.60
2019-05-05T07:18:48.288Z,7.50
2019-05-05T07:21:19.202Z,7.30
2019-05-05T07:23:50.403Z,7.20
2019-05-05T07:26:23.765Z,7.30
2019-05-05T07:28:55.380Z,7.60
2019-05-05T07:31:29.779Z,7.60
2019-05-05T07:34:01.914Z,7.90
2019-05-05T07:36:44.521Z,8.10
2019-05-05T07:39:16.116Z,8.00
2019-05-05T07:41:49.397Z,8.40
2019-05-05T07:44:28.433Z,8.40
2019-05-05T07:46:56.761Z,8.80
2019-05-05T07:49:28.433Z,9.10
2019-05-05T07:52:03.924Z,8.80
2019-05-05T07:54:34.597Z,8.90
2019-05-05T07:57:05.198Z,9.00
2019-05-05T07:59:37.456Z,8.50
2019-05-05T08:02:14.432Z,8.50
2019-05-05T08:04:44.350Z,8.90
2019-05-05T08:07:15.559Z,9.10
2019-05-05T08:09:50.757Z,9.10
2019-05-05T08:12:24.897Z,8.60
2019-05-05T08:14:57.421Z,9.00
2019-05-05T08:17:46.135Z,9.20
2019-05-05T08:20:31.220Z,9.00
2019-05-05T08:23:08.229Z,8.70
2019-05-05T08:25:56.529Z,8.90
2019-05-05T08:28:43.372Z,8.90
2019-05-05T08:31:46.962Z,9.30
2019-05-05T08:34:19.511Z,9.70
2019-05-05T08:36:50.718Z,9.60
2019-05-05T08:39:21.588Z,9.30
2019-05-05T08:41:54.325Z,9.50
2019-05-05T08:44:26.554Z,9.70
2019-05-05T08:46:57.848Z,9.80
2019-05-05T08:49:29.037Z,9.70
2019-05-05T08:52:04.314Z,9.90
2019-05-05T08:54:37.405Z,9.90
2019-05-05T08:57:15.892Z,10.00
2019-05-05T08:59:50.065Z,10.00
2019-05-05T09:02:20.173Z,9.30
2019-05-05T09:04:53.742Z,9.00
2019-05-05T09:07:26.041Z,8.60
2019-05-05T09:09:58.761Z,8.60
2019-05-05T09:12:33.900Z,9.10
2019-05-05T09:15:08.473Z,9.30
2019-05-05T09:17:43.947Z,9.50
2019-05-05T09:20:14.840Z,9.50
2019-05-05T09:22:48.185Z,9.60
2019-05-05T09:25:34.804Z,9.00
2019-05-05T09:28:14.759Z,8.60
2019-05-05T09:30:53.530Z,9.00
2019-05-05T09:33:27.823Z,9.50
2019-05-05T09:35:58.700Z,9.60
2019-05-05T09:38:30.987Z,9.60
2019-05-05T09:41:03.874Z,9.40
2019-05-05T09:43:38.156Z,8.80
2019-05-05T09:46:14.400Z,9.20
2019-05-05T09:48:46.918Z,9.20
2019-05-05T09:51:19.153Z,8.90
2019-05-05T09:53:51.375Z,8.60
2019-05-05T09:56:23.620Z,8.30
2019-05-05T09:58:55.984Z,8.20
2019-05-05T10:01:29.200Z,8.30
2019-05-05T10:04:11.100Z,8.30
2019-05-05T10:06:47.647Z,8.00
2019-05-05T10:09:16.931Z,7.90
2019-05-05T10:11:49.164Z,8.20
2019-05-05T10:14:21.804Z,8.50
2019-05-05T10:16:54.062Z,7.80
2019-05-05T10:19:27.687Z,7.30
2019-05-05T10:22:00.635Z,7.40
2019-05-05T10:24:44.311Z,7.10
2019-05-05T10:27:18.641Z,7.10
2019-05-05T10:29:54.916Z,7.20
2019-05-05T10:32:25.538Z,7.10
2019-05-05T10:35:04.781Z,7.10
2019-05-05T10:37:35.465Z,7.50
2019-05-05T10:40:08.453Z,7.70
2019-05-05T10:42:54.043Z,7.50
2019-05-05T10:45:25.884Z,7.90
2019-05-05T10:47:57.050Z,7.20
2019-05-05T10:50:28.764Z,7.20
2019-05-05T10:52:58.074Z,7.40
2019-05-05T10:55:26.851Z,7.30
2019-05-05T10:57:58.968Z,7.20
2019-05-05T11:00:41.512Z,7.10
2019-05-05T11:03:15.914Z,6.90
2019-05-05T11:05:48.780Z,7.00
2019-05-05T11:08:19.486Z,6.90
2019-05-05T11:10:51.675Z,7.10
2019-05-05T11:13:25.167Z,6.80
2019-05-05T11:15:57.731Z,6.80
2019-05-05T11:18:30.437Z,7.40
2019-05-05T11:21:05.541Z,8.20
2019-05-05T11:23:40.852Z,8.30
2019-05-05T11:26:14.301Z,7.90
2019-05-05T11:28:49.849Z,7.90
2019-05-05T11:31:24.158Z,7.50
2019-05-05T11:33:59.772Z,7.80
2019-05-05T11:36:54.827Z,7.40
2019-05-05T11:39:24.858Z,7.40
2019-05-05T11:41:55.541Z,7.30
2019-05-05T11:44:28.858Z,7.50
2019-05-05T11:47:00.173Z,7.60
2019-05-05T11:49:33.766Z,7.50
2019-05-05T11:52:04.598Z,7.10
2019-05-05T11:54:36.898Z,7.40
2019-05-05T11:57:10.180Z,7.20
2019-05-05T11:59:40.825Z,7.30
2019-05-05T12:02:16.107Z,7.20
2019-05-05T12:04:49.264Z,7.40
2019-05-05T12:07:20.930Z,7.70
2019-05-05T12:09:55.411Z,7.60
2019-05-05T12:12:26.577Z,8.00
2019-05-05T12:14:59.134Z,8.10
2019-05-05T12:17:36.981Z,8.20
2019-05-05T12:20:09.318Z,7.90
2019-05-05T12:22:41.584Z,7.90
2019-05-05T12:25:43.712Z,8.00
2019-05-05T12:28:31.869Z,8.40
2019-05-05T12:31:03.894Z,8.10
2019-05-05T12:33:35.518Z,7.80
2019-05-05T12:36:05.829Z,7.80
2019-05-05T12:38:37.516Z,7.80
2019-05-05T12:41:09.151Z,7.80
2019-05-05T12:43:39.953Z,8.20
2019-05-05T12:46:36.210Z,8.80
2019-05-05T12:49:09.421Z,8.70
2019-05-05T12:51:43.416Z,8.80
2019-05-05T12:54:16.588Z,9.20
2019-05-05T12:56:46.056Z,10.00
2019-05-05T12:59:25.077Z,9.70
2019-05-05T13:01:55.717Z,9.40
2019-05-05T13:04:33.690Z,8.60
2019-05-05T13:07:08.205Z,8.80
2019-05-05T13:09:37.873Z,8.70
2019-05-05T13:12:10.227Z,9.00
2019-05-05T13:14:41.199Z,9.40
2019-05-05T13:17:14.289Z,9.60
2019-05-05T13:20:04.730Z,10.00
2019-05-05T13:22:58.505Z,10.60
2019-05-05T13:25:56.077Z,9.50
2019-05-05T13:28:18.706Z,9.40
2019-05-05T13:30:54.064Z,9.90
2019-05-05T13:33:24.696Z,10.40
2019-05-05T13:35:55.870Z,10.10
2019-05-05T13:38:28.276Z,10.40
2019-05-05T13:40:59.466Z,10.70
2019-05-05T13:43:29.997Z,9.70
2019-05-05T13:46:20.172Z,9.90
2019-05-05T13:48:50.966Z,10.50
2019-05-05T13:51:24.051Z,11.00
2019-05-05T13:53:57.829Z,11.50
2019-05-05T13:56:29.561Z,10.30
2019-05-05T13:59:03.113Z,10.30
2019-05-05T14:01:37.490Z,9.90
2019-05-05T14:04:07.240Z,9.80
2019-05-05T14:06:40.452Z,9.70
2019-05-05T14:09:11.090Z,9.60
2019-05-05T14:11:44.642Z,9.50
2019-05-05T14:14:15.384Z,9.70
2019-05-05T14:16:46.097Z,10.10
2019-05-05T14:19:17.324Z,10.00
2019-05-05T14:21:49.040Z,9.70
2019-05-05T14:24:48.808Z,9.50
2019-05-05T14:27:23.798Z,9.30
2019-05-05T14:30:03.927Z,10.00
2019-05-05T14:32:36.346Z,10.00
2019-05-05T14:35:37.261Z,11.10
2019-05-05T14:38:12.218Z,11.30
2019-05-05T14:40:44.785Z,11.70
2019-05-05T14:43:16.839Z,12.30
2019-05-05T14:45:47.606Z,12.40
2019-05-05T14:48:18.847Z,12.60
2019-05-05T14:50:54.431Z,12.80
2019-05-05T14:53:26.593Z,13.10
2019-05-05T14:55:57.164Z,13.30
2019-05-05T14:58:30.577Z,13.20
2019-05-05T15:01:05.111Z,13.10
2019-05-05T15:03:36.305Z,13.40
2019-05-05T15:06:18.023Z,13.60
2019-05-05T15:09:07.273Z,13.70
2019-05-05T15:12:14.833Z,14.10
2019-05-05T15:14:48.056Z,14.10
2019-05-05T15:17:20.334Z,13.70
2019-05-05T15:19:53.982Z,13.50
2019-05-05T15:22:24.884Z,13.80
2019-05-05T15:24:55.953Z,13.80
2019-05-05T15:27:27.633Z,13.50
2019-05-05T15:29:58.068Z,13.40
2019-05-05T15:32:29.837Z,13.60
2019-05-05T15:34:59.793Z,13.60
2019-05-05T15:37:30.938Z,13.50
2019-05-05T15:40:01.174Z,13.40
2019-05-05T15:42:33.498Z,13.20
2019-05-05T15:45:04.212Z,13.10
2019-05-05T15:47:34.857Z,13.20
2019-05-05T15:50:06.690Z,13.10
2019-05-05T15:52:38.193Z,13.40
2019-05-05T15:55:08.760Z,13.30
2019-05-05T15:57:44.316Z,13.70
2019-05-05T16:00:16.181Z,13.90
2019-05-05T16:02:47.764Z,13.50
2019-05-05T16:05:19.026Z,13.80
2019-05-05T16:07:49.586Z,13.80
2019-05-05T16:10:22.744Z,14.00
2019-05-05T16:12:56.401Z,13.90
2019-05-05T16:15:53.546Z,13.90
2019-05-05T16:18:33.141Z,13.50
2019-05-05T16:21:39.826Z,12.60
2019-05-05T16:24:18.037Z,12.60
2019-05-05T16:26:49.447Z,12.10
2019-05-05T16:29:23.749Z,11.60
2019-05-05T16:31:58.236Z,11.00
2019-05-05T16:34:29.914Z,11.40
2019-05-05T16:37:04.036Z,10.70
2019-05-05T16:39:35.003Z,10.40
2019-05-05T16:42:06.165Z,10.50
2019-05-05T16:44:37.358Z,11.20
2019-05-05T16:47:07.185Z,10.40
2019-05-05T16:49:38.264Z,10.20
2019-05-05T16:52:15.869Z,10.70
2019-05-05T16:55:04.538Z,10.10
2019-05-05T16:57:36.804Z,10.50
2019-05-05T17:00:08.385Z,10.60
2019-05-05T17:02:44.083Z,11.00
2019-05-05T17:05:17.720Z,11.30
2019-05-05T17:07:48.849Z,11.20
2019-05-05T17:10:19.349Z,11.40
2019-05-05T17:12:48.160Z,11.70
2019-05-05T17:15:39.660Z,11.50
2019-05-05T17:18:35.975Z,11.10
2019-05-05T17:21:18.684Z,10.90
2019-05-05T17:23:49.248Z,10.70
2019-05-05T17:26:24.142Z,10.90
2019-05-05T17:28:54.397Z,11.00
2019-05-05T17:31:28.653Z,11.00
2019-05-05T17:34:01.833Z,10.90
2019-05-05T17:36:34.309Z,10.70
2019-05-05T17:39:08.093Z,10.90
2019-05-05T17:42:15.385Z,10.80
2019-05-05T17:45:08.337Z,10.80
2019-05-05T17:47:54.296Z,10.70
2019-05-05T17:50:44.582Z,10.90
2019-05-05T17:53:28.712Z,11.00
2019-05-05T17:56:00.620Z,10.80
2019-05-05T17:58:30.608Z,10.30
2019-05-05T18:01:00.993Z,10.40
2019-05-05T18:03:30.800Z,10.40
2019-05-05T18:06:23.637Z,10.50
2019-05-05T18:09:11.396Z,10.10
2019-05-05T18:11:59.804Z,10.00
2019-05-05T18:14:30.747Z,10.00
2019-05-05T18:17:07.054Z,10.20
2019-05-05T18:19:38.716Z,10.00
2019-05-05T18:22:09.878Z,9.80
2019-05-05T18:24:40.581Z,9.80
2019-05-05T18:27:14.054Z,9.60
2019-05-05T18:29:48.738Z,9.60
2019-05-05T18:32:19.251Z,9.30
2019-05-05T18:34:54.482Z,9.30
2019-05-05T18:37:25.894Z,9.30
2019-05-05T18:39:54.816Z,9.30
2019-05-05T18:42:27.625Z,9.20
2019-05-05T18:45:04.393Z,9.10
2019-05-05T18:47:38.090Z,9.00
2019-05-05T18:50:09.590Z,8.90
2019-05-05T18:52:44.558Z,8.90
2019-05-05T18:55:15.743Z,8.90
2019-05-05T18:57:46.946Z,8.80
2019-05-05T19:00:25.687Z,8.70
2019-05-05T19:03:15.101Z,8.70
2019-05-05T19:06:01.611Z,8.70
2019-05-05T19:08:37.913Z,8.70
2019-05-05T19:11:09.088Z,8.60
2019-05-05T19:13:39.802Z,8.50
2019-05-05T19:16:14.206Z,8.40
2019-05-05T19:18:44.827Z,8.40
2019-05-05T19:21:20.725Z,8.40
2019-05-05T19:23:54.192Z,8.30
2019-05-05T19:26:27.511Z,8.40
2019-05-05T19:29:02.393Z,8.30
2019-05-05T19:31:36.334Z,8.30
2019-05-05T19:34:07.769Z,8.20
2019-05-05T19:36:38.936Z,8.10
2019-05-05T19:39:11.122Z,8.00
2019-05-05T19:41:47.052Z,8.00
2019-05-05T19:44:19.894Z,8.00
2019-05-05T19:47:24.812Z,7.90
2019-05-05T19:50:25.183Z,7.90
2019-05-05T19:52:55.819Z,7.90
2019-05-05T19:55:30.486Z,7.70
2019-05-05T19:58:20.850Z,7.70
2019-05-05T20:00:54.750Z,7.80
2019-05-05T20:03:28.240Z,7.80
2019-05-05T20:06:04.839Z,7.70
2019-05-05T20:08:40.870Z,7.60
2019-05-05T20:11:14.177Z,7.60
2019-05-05T20:13:45.393Z,7.60
2019-05-05T20:16:27.472Z,7.60
2019-05-05T20:19:00.201Z,7.60
2019-05-05T20:21:31.313Z,7.60
2019-05-05T20:24:03.586Z,7.50
2019-05-05T20:26:34.727Z,7.50
2019-05-05T20:29:13.782Z,7.40
2019-05-05T20:31:41.848Z,7.40
2019-05-05T20:34:26.575Z,7.50
2019-05-05T20:37:11.272Z,7.50
2019-05-05T20:39:44.215Z,7.40
2019-05-05T20:42:18.488Z,7.50
2019-05-05T20:44:47.308Z,7.40
2019-05-05T20:47:17.560Z,7.50
2019-05-05T20:49:48.744Z,7.40
2019-05-05T20:52:23.600Z,7.40
2019-05-05T20:54:54.804Z,7.40
2019-05-05T20:57:25.451Z,7.40
2019-05-05T20:59:58.410Z,7.40
2019-05-05T21:02:34.352Z,7.40
2019-05-05T21:05:04.450Z,7.30
2019-05-05T21:07:35.694Z,7.40
2019-05-05T21:10:06.389Z,7.40
2019-05-05T21:12:42.678Z,7.40
2019-05-05T21:15:13.143Z,7.40
2019-05-05T21:17:45.051Z,7.40
2019-05-05T21:20:15.749Z,7.40
2019-05-05T21:22:53.988Z,7.40
2019-05-05T21:25:35.605Z,7.30
2019-05-05T21:28:06.640Z,7.30
2019-05-05T21:30:40.070Z,7.30
2019-05-05T21:33:14.946Z,7.30
2019-05-05T21:35:47.052Z,7.20
2019-05-05T21:38:20.277Z,7.20
2019-05-05T21:40:52.533Z,7.10
2019-05-05T21:43:30.965Z,7.10
2019-05-05T21:46:01.977Z,7.10
2019-05-05T21:48:35.255Z,7.00
2019-05-05T21:51:14.257Z,7.00
2019-05-05T21:53:54.926Z,6.90
2019-05-05T21:56:52.474Z,6.90
2019-05-05T21:59:29.561Z,6.80
2019-05-05T22:02:03.921Z,6.70
2019-05-05T22:04:35.701Z,6.70
2019-05-05T22:07:09.959Z,6.70
2019-05-05T22:09:40.559Z,6.70
2019-05-05T22:12:18.908Z,6.70
2019-05-05T22:14:50.506Z,6.70
2019-05-05T22:17:24.948Z,6.70
2019-05-05T22:20:07.612Z,6.80
2019-05-05T22:22:40.029Z,6.80
2019-05-05T22:25:14.477Z,6.80
2019-05-05T22:27:46.921Z,6.80
2019-05-05T22:30:23.591Z,6.80
2019-05-05T22:32:59.944Z,6.70
2019-05-05T22:35:34.952Z,6.90
2019-05-05T22:38:06.117Z,6.70
2019-05-05T22:40:38.313Z,6.80
2019-05-05T22:43:10.548Z,6.80
2019-05-05T22:45:42.378Z,6.80
2019-05-05T22:48:15.813Z,6.80
2019-05-05T22:50:48.146Z,6.70
2019-05-05T22:53:18.812Z,6.70
2019-05-05T22:55:49.971Z,6.70
2019-05-05T22:58:21.298Z,6.60
2019-05-05T23:00:54.901Z,6.60
2019-05-05T23:03:32.240Z,6.70
2019-05-05T23:06:07.568Z,6.60
2019-05-05T23:08:40.987Z,6.70
2019-05-05T23:11:11.623Z,6.80
2019-05-05T23:13:46.029Z,6.60
2019-05-05T23:16:39.428Z,6.60
2019-05-05T23:19:17.460Z,6.50
2019-05-05T23:21:54.317Z,6.60
2019-05-05T23:24:46.609Z,6.50
2019-05-05T23:27:34.861Z,6.50
2019-05-05T23:30:07.565Z,6.50
2019-05-05T23:32:38.085Z,6.50
2019-05-05T23:35:09.490Z,6.60
2019-05-05T23:37:44.844Z,6.50
2019-05-05T23:40:17.686Z,6.50
2019-05-05T23:42:49.085Z,6.50
2019-05-05T23:45:24.830Z,6.50
2019-05-05T23:47:57.441Z,6.40
2019-05-05T23:50:29.314Z,6.40
2019-05-05T23:53:00.087Z,6.40
2019-05-05T23:55:29.116Z,6.40
2019-05-05T23:57:57.712Z,6.40
